Time;durP1;ratioP1;P1;durP2;ratioP2;P2;SDS_P1;SDS_P2;PMS_P1;PMS_P2;Temp;Humidity;BMP_temperature;BMP_pressure;BME280_temperature;BME280_humidity;BME280_pressure;Samples;Min_cycle;Max_cycle;Signal;HPM_P1;HPM_P2
2023/05/03 00:00:09;;;;;;;5.40;2.70;;;10.60;1.00;;;;;;5000617;28;20939;-80
2023/05/03 00:02:39;;;;;;;6.00;3.17;;;10.60;1.00;;;;;;4987917;28;20452;-80
2023/05/03 00:05:08;;;;;;;6.27;3.20;;;10.60;1.00;;;;;;4997777;28;21108;-80
2023/05/03 00:07:35;;;;;;;5.40;2.77;;;10.60;1.00;;;;;;4990876;28;20464;-80
2023/05/03 00:10:03;;;;;;;6.20;2.83;;;10.60;1.00;;;;;;4989341;28;20509;-79
2023/05/03 00:12:30;;;;;;;8.07;2.97;;;10.60;1.00;;;;;;5003552;28;20459;-80
2023/05/03 00:14:58;;;;;;;7.00;3.43;;;10.60;1.00;;;;;;5004240;28;20446;-78
2023/05/03 00:17:27;;;;;;;5.40;3.40;;;10.50;1.00;;;;;;5002631;28;20454;-80
2023/05/03 00:19:55;;;;;;;6.63;3.50;;;10.50;1.00;;;;;;5003967;28;20490;-79
2023/05/03 00:22:22;;;;;;;7.07;3.13;;;10.50;1.00;;;;;;4991728;28;20465;-80
2023/05/03 00:24:51;;;;;;;7.20;3.80;;;10.40;1.00;;;;;;5002066;28;20466;-81
2023/05/03 00:27:20;;;;;;;6.70;2.87;;;10.40;1.00;;;;;;4976640;28;20537;-80
2023/05/03 00:29:55;;;;;;;9.00;3.20;;;10.40;1.00;;;;;;5003800;28;20467;-80
2023/05/03 00:32:24;;;;;;;6.87;3.20;;;10.30;1.00;;;;;;4982838;28;21272;-79
2023/05/03 00:35:02;;;;;;;6.10;3.00;;;10.30;1.00;;;;;;5003079;28;20546;-80
2023/05/03 00:37:29;;;;;;;5.93;3.50;;;10.20;1.00;;;;;;5005858;28;20493;-79
2023/05/03 00:39:57;;;;;;;5.00;3.30;;;10.10;1.00;;;;;;4993523;28;20502;-80
2023/05/03 00:42:24;;;;;;;5.77;3.60;;;10.00;1.00;;;;;;4998435;28;20458;-79
2023/05/03 00:44:51;;;;;;;5.33;3.40;;;9.90;1.00;;;;;;4998508;28;21353;-78
2023/05/03 00:47:18;;;;;;;6.60;3.40;;;9.80;1.00;;;;;;5001414;28;21063;-80
2023/05/03 00:49:49;;;;;;;8.93;3.50;;;9.80;1.00;;;;;;4999056;28;20439;-78
2023/05/03 00:52:16;;;;;;;7.73;3.07;;;9.70;1.00;;;;;;5005827;28;20456;-80
2023/05/03 00:54:44;;;;;;;10.60;4.03;;;9.70;1.00;;;;;;5007665;28;20462;-83
2023/05/03 00:57:12;;;;;;;6.40;3.60;;;9.60;1.00;;;;;;5006146;28;20471;-81
2023/05/03 00:59:39;;;;;;;5.07;3.03;;;9.60;1.00;;;;;;5002496;28;20446;-82
2023/05/03 01:02:06;;;;;;;6.77;3.30;;;9.60;1.00;;;;;;4999829;28;20464;-79
2023/05/03 01:04:34;;;;;;;9.83;3.50;;;9.50;1.00;;;;;;5048621;23;20507;-79
2023/05/03 01:07:24;;;;;;;7.67;3.57;;;9.50;1.00;;;;;;4959480;28;20477;-79
2023/05/03 01:09:59;;;;;;;10.77;3.30;;;9.50;1.00;;;;;;4965740;28;20471;-79
2023/05/03 01:12:48;;;;;;;6.07;3.63;;;9.40;1.00;;;;;;4964952;28;20523;-78
2023/05/03 01:15:23;;;;;;;7.30;3.50;;;9.30;1.00;;;;;;4967917;28;20465;-79
2023/05/03 01:17:54;;;;;;;6.80;3.70;;;9.30;1.00;;;;;;4967430;28;20494;-79
2023/05/03 01:20:24;;;;;;;8.10;3.20;;;9.20;1.00;;;;;;4966617;28;20477;-78
2023/05/03 01:23:05;;;;;;;5.37;3.53;;;9.20;1.00;;;;;;4967261;28;20850;-78
2023/05/03 01:25:34;;;;;;;8.10;3.63;;;9.20;1.00;;;;;;4965529;28;20461;-78
2023/05/03 01:28:01;;;;;;;5.80;3.20;;;9.10;1.00;;;;;;4962070;28;20944;-78
2023/05/03 01:30:30;;;;;;;7.50;3.80;;;9.10;1.00;;;;;;4963195;28;20472;-79
2023/05/03 01:33:05;;;;;;;8.93;3.60;;;9.00;1.00;;;;;;4961766;28;20478;-78
2023/05/03 01:35:37;;;;;;;9.70;3.80;;;9.00;1.00;;;;;;4966465;28;20563;-78
2023/05/03 01:38:05;;;;;;;8.03;4.03;;;8.90;1.00;;;;;;4971635;28;20469;-78
2023/05/03 01:40:38;;;;;;;8.03;3.87;;;8.90;1.00;;;;;;4963163;28;20544;-78
2023/05/03 01:43:08;;;;;;;9.50;3.70;;;8.90;1.00;;;;;;4962003;28;21245;-79
2023/05/03 01:45:35;;;;;;;8.47;3.77;;;8.80;1.00;;;;;;4959532;28;20457;-77
2023/05/03 01:48:02;;;;;;;8.43;4.00;;;8.80;1.00;;;;;;4962223;28;20463;-76
2023/05/03 01:50:29;;;;;;;6.43;3.47;;;8.70;1.00;;;;;;4962200;28;20478;-76
2023/05/03 01:52:56;;;;;;;7.53;3.80;;;8.70;1.00;;;;;;4967469;28;20511;-76
2023/05/03 01:55:23;;;;;;;10.50;4.40;;;8.70;1.00;;;;;;4964372;28;20589;-77
2023/05/03 01:57:51;;;;;;;10.30;4.23;;;8.60;1.00;;;;;;4959971;28;20568;-77
2023/05/03 02:00:19;;;;;;;6.60;4.07;;;8.60;1.00;;;;;;4959612;28;20520;-76
2023/05/03 02:02:48;;;;;;;5.97;3.77;;;8.60;1.00;;;;;;4962313;28;20463;-77
2023/05/03 02:05:15;;;;;;;9.63;4.30;;;8.50;1.00;;;;;;4955360;28;20425;-76
2023/05/03 02:07:42;;;;;;;7.17;3.40;;;8.50;1.00;;;;;;4962640;28;20580;-75
2023/05/03 02:10:13;;;;;;;8.10;3.63;;;8.40;1.00;;;;;;4966030;28;20490;-76
2023/05/03 02:12:40;;;;;;;8.43;4.50;;;8.40;1.00;;;;;;4965509;28;20477;-76
2023/05/03 02:15:09;;;;;;;5.90;3.27;;;8.30;1.00;;;;;;4960771;28;20599;-76
2023/05/03 02:17:37;;;;;;;8.10;4.17;;;8.30;1.00;;;;;;4962556;28;21177;-76
2023/05/03 02:20:05;;;;;;;7.93;3.40;;;8.30;1.00;;;;;;4960811;28;20568;-76
2023/05/03 02:22:32;;;;;;;5.83;2.90;;;8.30;1.00;;;;;;4963830;28;20979;-77
2023/05/03 02:24:59;;;;;;;7.47;3.50;;;8.30;1.00;;;;;;4965414;28;21307;-77
2023/05/03 02:27:26;;;;;;;5.70;2.87;;;8.30;1.00;;;;;;4965926;28;20503;-77
2023/05/03 02:29:55;;;;;;;6.40;3.33;;;8.20;1.00;;;;;;4966375;28;20481;-76
2023/05/03 02:32:24;;;;;;;8.13;3.70;;;8.20;1.00;;;;;;4960464;28;21007;-77
2023/05/03 02:34:51;;;;;;;8.87;3.63;;;8.20;1.00;;;;;;4965763;28;20518;-76
2023/05/03 02:37:18;;;;;;;9.83;3.40;;;8.10;1.00;;;;;;4962732;28;20556;-76
2023/05/03 02:39:45;;;;;;;8.13;3.77;;;8.10;1.00;;;;;;4964394;28;20476;-76
2023/05/03 02:42:12;;;;;;;8.80;3.63;;;8.10;1.00;;;;;;4960255;28;20564;-76
2023/05/03 02:44:39;;;;;;;6.03;3.60;;;8.10;1.00;;;;;;4961668;28;20504;-76
2023/05/03 02:47:07;;;;;;;11.30;4.30;;;8.10;1.00;;;;;;4959909;28;20481;-77
2023/05/03 02:49:35;;;;;;;6.83;3.30;;;8.00;1.00;;;;;;4956397;28;20701;-77
2023/05/03 02:52:03;;;;;;;11.10;3.90;;;8.00;1.00;;;;;;4960922;28;20546;-76
2023/05/03 02:54:30;;;;;;;8.63;4.33;;;8.00;1.00;;;;;;4961624;28;20494;-78
2023/05/03 02:56:57;;;;;;;7.03;3.93;;;8.00;1.00;;;;;;4956646;28;20472;-76
2023/05/03 02:59:24;;;;;;;7.97;3.60;;;8.00;1.00;;;;;;4956036;28;20476;-76
2023/05/03 03:01:51;;;;;;;6.90;3.87;;;7.90;1.00;;;;;;4960125;28;20503;-76
2023/05/03 03:04:21;;;;;;;9.50;4.87;;;7.90;1.00;;;;;;4953545;28;20484;-77
2023/05/03 03:06:52;;;;;;;7.70;4.03;;;7.90;1.00;;;;;;4959832;28;20468;-76
2023/05/03 03:09:19;;;;;;;12.30;4.37;;;7.90;1.00;;;;;;4959239;28;21213;-77
2023/05/03 03:11:46;;;;;;;8.70;3.97;;;7.80;1.00;;;;;;4957870;28;20468;-78
2023/05/03 03:14:13;;;;;;;11.83;4.10;;;7.80;1.00;;;;;;4959462;28;20521;-77
2023/05/03 03:16:40;;;;;;;9.03;4.43;;;7.80;1.00;;;;;;4959310;28;20461;-77
2023/05/03 03:19:07;;;;;;;8.23;3.93;;;7.80;1.00;;;;;;4953830;28;20509;-77
2023/05/03 03:21:34;;;;;;;8.40;4.23;;;7.80;1.00;;;;;;4955977;28;20503;-77
2023/05/03 03:24:03;;;;;;;8.40;4.13;;;7.80;1.00;;;;;;4964644;28;20475;-77
2023/05/03 03:26:30;;;;;;;8.47;4.83;;;7.80;1.00;;;;;;4955141;28;20553;-75
2023/05/03 03:28:59;;;;;;;11.00;5.57;;;7.70;1.00;;;;;;4957879;28;20844;-75
2023/05/03 03:31:26;;;;;;;9.23;4.53;;;7.70;1.00;;;;;;4960536;28;20536;-76
2023/05/03 03:33:54;;;;;;;10.53;5.27;;;7.60;1.00;;;;;;4960466;28;20527;-77
2023/05/03 03:36:22;;;;;;;8.87;5.23;;;7.70;1.00;;;;;;4961182;28;20457;-76
2023/05/03 03:38:49;;;;;;;8.00;3.63;;;7.70;1.00;;;;;;4962080;28;20567;-76
2023/05/03 03:41:19;;;;;;;9.07;4.37;;;7.70;1.00;;;;;;4960037;28;21227;-76
2023/05/03 03:43:46;;;;;;;14.77;4.17;;;7.60;1.00;;;;;;4962761;28;20510;-76
2023/05/03 03:46:13;;;;;;;12.13;7.37;;;7.60;1.00;;;;;;4959282;28;20465;-77
2023/05/03 03:48:43;;;;;;;12.67;4.80;;;7.60;1.00;;;;;;4960061;28;20483;-79
2023/05/03 03:51:10;;;;;;;7.00;4.00;;;7.60;1.00;;;;;;4940122;28;20460;-77
2023/05/03 03:53:38;;;;;;;10.90;4.23;;;7.60;1.00;;;;;;4961734;28;20519;-76
2023/05/03 03:56:06;;;;;;;8.63;4.67;;;7.60;1.00;;;;;;4959204;28;20522;-78
2023/05/03 03:58:35;;;;;;;11.80;5.00;;;7.60;1.00;;;;;;4963681;28;20480;-77
2023/05/03 04:01:02;;;;;;;12.43;5.20;;;7.60;1.00;;;;;;4963636;28;20460;-77
2023/05/03 04:03:29;;;;;;;11.50;5.30;;;7.60;1.00;;;;;;4959038;28;20339;-77
2023/05/03 04:05:56;;;;;;;11.40;4.43;;;7.60;1.00;;;;;;4979777;28;21059;-76
2023/05/03 04:08:23;;;;;;;10.17;4.30;;;7.60;1.00;;;;;;4987225;28;20479;-76
2023/05/03 04:10:51;;;;;;;7.20;3.30;;;7.60;1.00;;;;;;4982577;28;20458;-76
2023/05/03 04:13:18;;;;;;;9.80;4.50;;;7.60;1.00;;;;;;4985302;28;20471;-77
2023/05/03 04:15:46;;;;;;;9.93;4.70;;;7.60;1.00;;;;;;4966160;28;20449;-78
2023/05/03 04:18:13;;;;;;;16.50;7.97;;;7.60;1.00;;;;;;4982164;28;20593;-78
2023/05/03 04:20:40;;;;;;;10.18;5.00;;;7.60;1.00;;;;;;4986199;28;20978;-77
2023/05/03 04:23:08;;;;;;;7.33;4.10;;;7.60;1.00;;;;;;4968229;28;20937;-78
2023/05/03 04:25:35;;;;;;;9.97;4.70;;;7.70;1.00;;;;;;4973500;28;20488;-78
2023/05/03 04:28:05;;;;;;;12.63;4.73;;;7.70;1.00;;;;;;4986470;28;20566;-78
2023/05/03 04:30:36;;;;;;;10.67;5.40;;;7.70;1.00;;;;;;4983362;28;20451;-77
2023/05/03 04:33:05;;;;;;;9.93;4.30;;;7.70;1.00;;;;;;4976863;28;20475;-77
2023/05/03 04:35:34;;;;;;;9.70;4.43;;;7.80;1.00;;;;;;4979929;28;20512;-77
2023/05/03 04:38:02;;;;;;;10.73;4.50;;;7.70;1.00;;;;;;4967894;28;20487;-76
2023/05/03 04:40:29;;;;;;;11.33;4.40;;;7.70;1.00;;;;;;4949208;28;20456;-77
2023/05/03 04:42:57;;;;;;;11.13;5.57;;;7.70;1.00;;;;;;4981151;28;20450;-79
2023/05/03 04:45:25;;;;;;;9.97;5.07;;;7.80;1.00;;;;;;4983398;28;20467;-78
2023/05/03 04:48:00;;;;;;;11.90;4.60;;;7.80;1.00;;;;;;4985182;28;20488;-80
2023/05/03 04:50:30;;;;;;;12.73;5.27;;;7.80;1.00;;;;;;4933492;28;20440;-80
2023/05/03 04:52:59;;;;;;;9.77;4.60;;;7.90;1.00;;;;;;4991755;28;20982;-81
2023/05/03 04:55:29;;;;;;;9.00;4.73;;;7.90;1.00;;;;;;4983862;28;20525;-81
2023/05/03 04:57:57;;;;;;;12.40;4.90;;;8.00;1.00;;;;;;4987021;28;21112;-80
2023/05/03 05:00:24;;;;;;;10.37;4.07;;;8.00;1.00;;;;;;4962046;28;20463;-80
2023/05/03 05:02:51;;;;;;;12.83;5.30;;;8.00;1.00;;;;;;4981807;28;20507;-80
2023/05/03 05:05:19;;;;;;;12.30;4.80;;;8.00;1.00;;;;;;4971169;28;20459;-80
2023/05/03 05:08:00;;;;;;;9.07;5.10;;;8.10;1.00;;;;;;4966663;28;20477;-79
2023/05/03 05:10:30;;;;;;;8.57;4.73;;;8.10;1.00;;;;;;4961901;28;21525;-81
2023/05/03 05:12:59;;;;;;;9.30;5.20;;;8.20;1.00;;;;;;4963613;28;20473;-81
2023/05/03 05:15:27;;;;;;;10.30;5.77;;;8.20;1.00;;;;;;4963496;28;20468;-81
2023/05/03 05:17:57;;;;;;;11.27;4.90;;;8.30;1.00;;;;;;4963675;28;20476;-81
2023/05/03 05:20:25;;;;;;;27.07;14.43;;;8.30;1.00;;;;;;4962477;28;22216;-80
2023/05/03 05:22:54;;;;;;;10.97;5.13;;;8.30;1.00;;;;;;4970198;28;20476;-80
2023/05/03 05:25:22;;;;;;;9.83;4.40;;;8.40;1.00;;;;;;4966907;28;20468;-80
2023/05/03 05:27:49;;;;;;;13.30;5.60;;;8.40;1.00;;;;;;4965032;28;20496;-80
2023/05/03 05:30:16;;;;;;;9.10;5.20;;;8.50;1.00;;;;;;4956219;28;20510;-81
2023/05/03 05:32:53;;;;;;;8.20;4.60;;;8.50;1.00;;;;;;4967557;28;20465;-82
2023/05/03 05:35:21;;;;;;;9.63;4.50;;;8.50;1.00;;;;;;4967078;28;20468;-82
2023/05/03 05:37:49;;;;;;;10.07;4.60;;;8.60;1.00;;;;;;4965530;28;20480;-80
2023/05/03 05:40:21;;;;;;;9.40;5.20;;;8.80;1.00;;;;;;4962697;28;20461;-81
2023/05/03 05:42:49;;;;;;;12.60;6.07;;;8.90;1.00;;;;;;4965012;28;20464;-80
2023/05/03 05:45:18;;;;;;;11.50;5.50;;;9.10;1.00;;;;;;4965062;28;20464;-82
2023/05/03 05:47:45;;;;;;;11.13;6.23;;;9.20;1.00;;;;;;4967391;28;20543;-80
2023/05/03 05:50:12;;;;;;;12.47;5.30;;;9.30;1.00;;;;;;4961259;28;20457;-78
2023/05/03 05:52:39;;;;;;;12.70;6.20;;;9.50;1.00;;;;;;4964861;28;20543;-79
2023/05/03 05:55:08;;;;;;;14.13;5.80;;;9.60;1.00;;;;;;4963444;28;21081;-81
2023/05/03 05:57:37;;;;;;;13.60;6.70;;;9.70;1.00;;;;;;4966081;28;21303;-82
2023/05/03 06:00:14;;;;;;;10.90;5.17;;;9.80;1.00;;;;;;4945955;28;20461;-81
2023/05/03 06:02:44;;;;;;;19.03;5.63;;;9.90;1.00;;;;;;4966914;28;21288;-82
2023/05/03 06:05:11;;;;;;;10.90;5.40;;;10.00;1.00;;;;;;4970065;28;20459;-83
2023/05/03 06:07:39;;;;;;;10.10;5.03;;;10.00;1.00;;;;;;4969580;28;20501;-84
2023/05/03 06:10:08;;;;;;;11.90;5.53;;;10.20;1.00;;;;;;4972485;28;20467;-82
2023/05/03 06:12:37;;;;;;;10.37;5.10;;;10.30;1.00;;;;;;4968807;28;20463;-80
2023/05/03 06:15:09;;;;;;;10.80;4.83;;;10.40;1.00;;;;;;4963798;28;20460;-83
2023/05/03 06:17:37;;;;;;;9.87;5.57;;;10.40;1.00;;;;;;4965232;28;20485;-82
2023/05/03 06:20:10;;;;;;;11.50;5.97;;;10.50;1.00;;;;;;4969337;28;20426;-84
2023/05/03 06:22:38;;;;;;;13.77;5.10;;;10.60;1.00;;;;;;4970060;28;20474;-84
2023/05/03 06:25:06;;;;;;;10.47;5.90;;;10.70;1.00;;;;;;4966480;28;20469;-82
2023/05/03 06:27:35;;;;;;;10.90;5.57;;;10.80;1.00;;;;;;4976645;28;20936;-81
2023/05/03 06:30:07;;;;;;;8.50;5.07;;;10.80;1.00;;;;;;4964914;28;20457;-83
2023/05/03 06:32:47;;;;;;;13.47;4.80;;;10.70;1.00;;;;;;4964867;28;20445;-87
2023/05/03 06:35:18;;;;;;;12.30;4.27;;;10.80;1.00;;;;;;4954900;28;20421;-82
2023/05/03 06:37:45;;;;;;;10.93;4.80;;;10.70;1.00;;;;;;4976720;28;20543;-82
2023/05/03 06:40:12;;;;;;;11.73;4.17;;;10.90;1.00;;;;;;4972092;28;20481;-84
2023/05/03 06:42:41;;;;;;;9.10;4.10;;;10.90;1.00;;;;;;4968961;28;20437;-83
2023/05/03 06:45:11;;;;;;;11.43;4.57;;;11.00;1.00;;;;;;4974306;28;20477;-85
2023/05/03 06:47:38;;;;;;;10.40;4.07;;;11.20;1.00;;;;;;4971834;28;20428;-83
2023/05/03 06:50:06;;;;;;;10.60;4.13;;;11.20;1.00;;;;;;4970983;28;20431;-83
2023/05/03 06:52:41;;;;;;;8.83;3.73;;;11.10;1.00;;;;;;4958213;28;20647;-82
2023/05/03 06:55:09;;;;;;;6.80;3.70;;;11.00;1.00;;;;;;4965130;28;20441;-81
2023/05/03 06:57:36;;;;;;;8.70;4.60;;;10.90;1.00;;;;;;4947224;28;20602;-84
2023/05/03 07:00:12;;;;;;;8.07;3.40;;;11.00;1.00;;;;;;4956754;28;21439;-82
2023/05/03 07:02:40;;;;;;;9.83;3.70;;;11.00;1.00;;;;;;4972456;28;20443;-82
2023/05/03 07:05:09;;;;;;;8.93;4.00;;;11.10;1.00;;;;;;4973399;28;20422;-82
2023/05/03 07:07:39;;;;;;;8.23;3.40;;;11.20;1.00;;;;;;4967436;28;20464;-84
2023/05/03 07:10:07;;;;;;;11.00;3.40;;;11.20;1.00;;;;;;4967000;28;20461;-84
2023/05/03 07:12:37;;;;;;;8.70;3.20;;;11.40;1.00;;;;;;4965391;28;20448;-82
2023/05/03 07:15:04;;;;;;;7.70;3.53;;;11.60;1.00;;;;;;4964075;28;20473;-83
2023/05/03 07:17:35;;;;;;;5.40;2.90;;;11.70;1.00;;;;;;4945999;28;20592;-83
2023/05/03 07:20:06;;;;;;;6.93;3.30;;;11.80;1.00;;;;;;4962981;28;20552;-85
2023/05/03 07:22:37;;;;;;;8.47;3.90;;;11.80;1.00;;;;;;4968136;28;20469;-79
2023/05/03 07:25:07;;;;;;;6.57;3.30;;;11.80;1.00;;;;;;4965273;28;20444;-80
2023/05/03 07:27:36;;;;;;;8.50;3.10;;;11.90;1.00;;;;;;4965937;28;20520;-80
2023/05/03 07:30:05;;;;;;;7.87;2.87;;;11.90;1.00;;;;;;4972557;28;20999;-82
2023/05/03 07:32:35;;;;;;;7.80;4.30;;;11.90;1.00;;;;;;4951709;28;22240;-80
2023/05/03 07:35:03;;;;;;;7.60;3.67;;;12.00;1.00;;;;;;4955595;28;20485;-82
2023/05/03 07:37:30;;;;;;;7.53;4.20;;;12.00;1.00;;;;;;4944652;28;20462;-84
2023/05/03 07:39:59;;;;;;;6.50;3.00;;;12.00;1.00;;;;;;4946590;28;20488;-84
2023/05/03 07:42:26;;;;;;;10.90;4.87;;;12.10;1.00;;;;;;4950389;28;20469;-84
2023/05/03 07:44:58;;;;;;;11.30;3.80;;;12.10;1.00;;;;;;4945711;28;20462;-81
2023/05/03 07:47:36;;;;;;;8.80;4.17;;;12.10;1.00;;;;;;4959163;28;20502;-84
2023/05/03 07:50:08;;;;;;;6.90;2.90;;;12.10;1.00;;;;;;4975670;28;20534;-86
2023/05/03 07:52:41;;;;;;;6.00;2.90;;;12.10;1.00;;;;;;4969338;28;21328;-81
2023/05/03 07:55:11;;;;;;;8.27;3.07;;;12.30;1.00;;;;;;4948138;28;20442;-81
2023/05/03 07:57:38;;;;;;;7.50;3.17;;;12.40;1.00;;;;;;4943072;28;20623;-85
2023/05/03 08:00:09;;;;;;;5.70;3.13;;;12.40;1.00;;;;;;4963670;28;20477;-80
2023/05/03 08:02:36;;;;;;;7.63;3.10;;;12.50;1.00;;;;;;4959540;28;20430;-82
2023/05/03 08:05:07;;;;;;;8.53;3.40;;;12.50;1.00;;;;;;4971895;28;20424;-83
2023/05/03 08:07:35;;;;;;;7.40;3.90;;;12.50;1.00;;;;;;4967428;28;20455;-80
2023/05/03 08:10:03;;;;;;;8.30;3.27;;;12.60;1.00;;;;;;4968819;28;20443;-82
2023/05/03 08:12:31;;;;;;;6.60;3.00;;;12.70;1.00;;;;;;4967462;28;20446;-79
2023/05/03 08:14:58;;;;;;;7.27;3.23;;;12.90;1.00;;;;;;4974312;28;20429;-82
2023/05/03 08:17:28;;;;;;;7.73;3.23;;;13.20;1.00;;;;;;4957729;28;20518;-81
2023/05/03 08:19:58;;;;;;;9.50;3.10;;;13.20;1.00;;;;;;4978799;28;21231;-83
2023/05/03 08:22:40;;;;;;;6.10;3.13;;;13.30;1.00;;;;;;4968782;28;20443;-84
2023/05/03 08:25:09;;;;;;;9.60;3.53;;;13.20;1.00;;;;;;4980859;28;20493;-85
2023/05/03 08:27:37;;;;;;;7.70;4.33;;;13.30;1.00;;;;;;4974952;28;20474;-85
2023/05/03 08:30:05;;;;;;;6.27;3.10;;;13.30;1.00;;;;;;4966300;28;20459;-84
2023/05/03 08:32:33;;;;;;;8.10;3.40;;;13.40;1.00;;;;;;4962913;28;23135;-81
2023/05/03 08:35:05;;;;;;;6.27;3.20;;;13.50;1.00;;;;;;4950380;28;20502;-84
2023/05/03 08:37:39;;;;;;;7.33;3.27;;;13.70;1.00;;;;;;4952407;28;20448;-85
2023/05/03 08:40:10;;;;;;;7.60;3.30;;;13.90;1.00;;;;;;4962412;28;20555;-86
2023/05/03 08:42:42;;;;;;;9.90;4.00;;;14.00;1.00;;;;;;4967825;28;20501;-87
2023/05/03 08:45:13;;;;;;;7.60;5.37;;;14.20;1.00;;;;;;4969336;28;20515;-85
2023/05/03 08:47:40;;;;;;;7.10;3.03;;;14.40;1.00;;;;;;4969874;28;21179;-85
2023/05/03 08:50:10;;;;;;;7.53;3.70;;;14.50;1.00;;;;;;4974748;28;20470;-89
2023/05/03 08:52:43;;;;;;;6.60;3.80;;;14.50;1.00;;;;;;4968026;28;20522;-83
2023/05/03 08:55:12;;;;;;;10.10;3.80;;;14.50;1.00;;;;;;4967798;28;20447;-85
2023/05/03 08:57:39;;;;;;;7.07;3.80;;;14.20;1.00;;;;;;4964927;28;20492;-85
2023/05/03 09:00:09;;;;;;;8.43;3.73;;;14.10;1.00;;;;;;4964953;28;20448;-85
2023/05/03 09:02:38;;;;;;;9.97;3.20;;;14.10;1.00;;;;;;4952633;28;20420;-84
2023/05/03 09:05:26;;;;;;;9.70;4.10;;;14.20;1.00;;;;;;4954465;28;20466;-85
2023/05/03 09:08:08;;;;;;;6.37;3.43;;;14.30;1.00;;;;;;4958893;28;20451;-86
2023/05/03 09:10:40;;;;;;;6.30;3.43;;;14.50;1.00;;;;;;4957789;28;20544;-84
2023/05/03 09:13:08;;;;;;;6.70;4.10;;;14.70;1.00;;;;;;4946253;28;20455;-84
2023/05/03 09:15:39;;;;;;;12.80;4.60;;;14.90;1.00;;;;;;4963724;28;20425;-84
2023/05/03 09:18:17;;;;;;;8.80;4.67;;;15.10;1.00;;;;;;4966558;28;20483;-83
2023/05/03 09:20:54;;;;;;;5.27;3.63;;;15.30;1.00;;;;;;4961091;28;20467;-85
2023/05/03 09:23:31;;;;;;;8.90;4.50;;;15.40;1.00;;;;;;4967670;28;20457;-83
2023/05/03 09:25:59;;;;;;;10.53;5.13;;;15.70;1.00;;;;;;4967789;28;20443;-83
2023/05/03 09:28:26;;;;;;;8.20;4.40;;;16.40;1.00;;;;;;4965980;28;20441;-84
2023/05/03 09:31:06;;;;;;;13.93;5.30;;;17.20;1.00;;;;;;4974150;28;20491;-86
2023/05/03 09:33:34;;;;;;;6.43;3.30;;;18.60;1.00;;;;;;4973491;28;20444;-87
2023/05/03 09:36:03;;;;;;;7.00;3.97;;;19.90;1.00;;;;;;4969253;28;20626;-89
2023/05/03 09:38:35;;;;;;;5.30;3.47;;;20.50;1.00;;;;;;4966778;28;21229;-80
2023/05/03 09:41:04;;;;;;;5.40;3.60;;;21.00;1.00;;;;;;4971348;28;20467;-80
2023/05/03 09:43:32;;;;;;;5.80;3.37;;;21.90;1.00;;;;;;4964730;28;20873;-80
2023/05/03 09:46:10;;;;;;;5.23;3.43;;;22.80;1.00;;;;;;4964222;28;20418;-80
2023/05/03 09:48:37;;;;;;;6.27;4.33;;;23.60;1.00;;;;;;4964095;28;20450;-79
2023/05/03 09:51:05;;;;;;;6.20;3.47;;;23.90;1.00;;;;;;4964660;28;20471;-81
2023/05/03 09:53:34;;;;;;;6.33;3.70;;;24.10;1.00;;;;;;4960809;28;20465;-80
2023/05/03 09:56:07;;;;;;;6.10;3.47;;;24.10;1.00;;;;;;4963055;28;20562;-80
2023/05/03 09:58:36;;;;;;;5.90;3.37;;;24.20;1.00;;;;;;4964232;28;20480;-80
2023/05/03 10:01:03;;;;;;;4.87;2.80;;;24.00;1.00;;;;;;4966229;28;20630;-81
2023/05/03 10:03:37;;;;;;;5.73;3.60;;;24.30;1.00;;;;;;4964376;28;20438;-81
2023/05/03 10:06:08;;;;;;;9.73;4.03;;;24.60;1.00;;;;;;4980428;28;20607;-79
2023/05/03 10:08:42;;;;;;;5.03;3.03;;;25.10;1.00;;;;;;4984449;28;20894;-81
2023/05/03 10:11:12;;;;;;;8.20;3.63;;;24.80;1.00;;;;;;4985226;28;21345;-80
2023/05/03 10:13:39;;;;;;;5.53;3.70;;;25.30;1.00;;;;;;4984075;28;21308;-80
2023/05/03 10:16:10;;;;;;;6.40;3.83;;;25.80;1.00;;;;;;4986042;28;20465;-82
2023/05/03 10:18:45;;;;;;;6.23;3.30;;;26.40;1.00;;;;;;4981585;28;20475;-82
2023/05/03 10:21:19;;;;;;;9.63;4.13;;;26.70;1.00;;;;;;4984622;28;20554;-80
2023/05/03 10:24:11;;;;;;;4.37;3.47;;;26.90;1.00;;;;;;4982004;28;20524;-81
2023/05/03 10:26:40;;;;;;;4.43;3.30;;;27.30;1.00;;;;;;4981295;28;20459;-82
2023/05/03 10:29:59;;;;;;;5.77;4.00;;;27.40;1.00;;;;;;4981682;28;20503;-81
2023/05/03 10:32:32;;;;;;;7.73;4.70;;;27.80;1.00;;;;;;4980909;28;20832;-82
2023/05/03 10:35:02;;;;;;;8.83;4.27;;;27.80;1.00;;;;;;4982966;28;21359;-80
2023/05/03 10:37:30;;;;;;;6.70;3.40;;;28.30;1.00;;;;;;4985979;28;20474;-82
2023/05/03 10:40:06;;;;;;;7.50;3.60;;;28.90;1.00;;;;;;4994989;28;20527;-83
2023/05/03 10:42:33;;;;;;;3.70;3.20;;;29.30;1.00;;;;;;4994055;28;20447;-83
2023/05/03 10:45:02;;;;;;;4.40;3.00;;;29.20;1.00;;;;;;4988960;28;20466;-82
2023/05/03 10:47:29;;;;;;;5.93;3.63;;;28.80;1.00;;;;;;4987388;28;20467;-83
2023/05/03 10:50:25;;;;;;;6.03;3.40;;;29.00;1.00;;;;;;4988454;28;20447;-81
2023/05/03 10:52:52;;;;;;;4.83;3.67;;;29.30;1.00;;;;;;4986673;28;20511;-84
2023/05/03 10:55:24;;;;;;;6.07;3.57;;;29.50;1.00;;;;;;4983899;28;21368;-84
2023/05/03 10:57:55;;;;;;;5.73;3.60;;;29.30;1.00;;;;;;4988516;28;20459;-85
2023/05/03 11:00:33;;;;;;;4.20;3.10;;;28.90;1.00;;;;;;4985537;28;20482;-84
2023/05/03 11:03:11;;;;;;;4.17;3.77;;;28.80;1.00;;;;;;4981537;28;20546;-80
2023/05/03 11:05:38;;;;;;;6.70;4.53;;;28.90;1.00;;;;;;4966176;28;20883;-81
2023/05/03 11:08:11;;;;;;;5.33;3.00;;;28.80;1.00;;;;;;4964232;28;20956;-79
2023/05/03 11:10:45;;;;;;;5.10;3.23;;;29.00;1.00;;;;;;4963236;28;20907;-81
2023/05/03 11:13:12;;;;;;;4.10;3.33;;;28.80;1.00;;;;;;4948830;28;20456;-80
2023/05/03 11:15:40;;;;;;;6.60;3.70;;;28.80;1.00;;;;;;4959496;28;20554;-81
2023/05/03 11:18:11;;;;;;;4.10;3.40;;;29.30;1.00;;;;;;4977531;28;20482;-87
2023/05/03 11:20:38;;;;;;;5.17;3.97;;;30.10;1.00;;;;;;4972255;28;20643;-84
2023/05/03 11:23:06;;;;;;;6.53;4.10;;;30.50;1.00;;;;;;4967991;28;20530;-85
2023/05/03 11:25:34;;;;;;;6.83;3.50;;;30.50;1.00;;;;;;4945572;28;20697;-82
2023/05/03 11:28:03;;;;;;;7.37;3.67;;;31.10;1.00;;;;;;4955247;28;20480;-86
2023/05/03 11:30:33;;;;;;;5.03;3.43;;;31.30;1.00;;;;;;4973009;28;20459;-87
2023/05/03 11:33:01;;;;;;;6.10;4.00;;;31.90;1.00;;;;;;4969417;28;20499;-85
2023/05/03 11:35:30;;;;;;;6.33;3.70;;;32.40;1.00;;;;;;4975603;28;20519;-87
2023/05/03 11:37:58;;;;;;;3.50;3.20;;;32.30;1.00;;;;;;4964991;28;20453;-86
2023/05/03 11:40:25;;;;;;;2.97;2.70;;;31.50;1.00;;;;;;4967140;28;20564;-85
2023/05/03 11:42:54;;;;;;;5.60;3.97;;;30.60;1.00;;;;;;4965170;28;20464;-86
2023/05/03 11:45:30;;;;;;;5.43;3.50;;;30.60;1.00;;;;;;4972055;28;20464;-84
2023/05/03 11:47:58;;;;;;;6.03;3.10;;;30.80;1.00;;;;;;4966255;28;20467;-85
2023/05/03 11:50:43;;;;;;;4.17;3.53;;;31.00;1.00;;;;;;4969032;28;20499;-85
2023/05/03 11:53:11;;;;;;;10.33;5.47;;;31.30;1.00;;;;;;4968679;28;20909;-84
2023/05/03 11:55:39;;;;;;;3.27;2.83;;;31.80;1.00;;;;;;4968844;28;20479;-85
2023/05/03 11:58:09;;;;;;;5.83;3.50;;;32.20;1.00;;;;;;4960811;28;20504;-83
2023/05/03 12:00:43;;;;;;;4.90;2.77;;;32.10;1.00;;;;;;4965575;28;20465;-84
2023/05/03 12:03:10;;;;;;;4.80;3.30;;;32.60;1.00;;;;;;4964842;28;20523;-84
2023/05/03 12:05:37;;;;;;;3.40;2.60;;;32.80;1.00;;;;;;4961772;28;20506;-85
2023/05/03 12:08:05;;;;;;;3.03;2.60;;;32.80;1.00;;;;;;4954113;28;20601;-82
2023/05/03 12:10:33;;;;;;;3.40;3.10;;;32.90;1.00;;;;;;4970099;28;20444;-87
2023/05/03 12:13:00;;;;;;;3.30;2.93;;;33.40;1.00;;;;;;4964729;28;20416;-85
2023/05/03 12:15:29;;;;;;;3.70;3.40;;;33.50;1.00;;;;;;4964301;28;20468;-87
2023/05/03 12:17:59;;;;;;;13.50;9.40;;;33.60;1.00;;;;;;4963334;28;20472;-85
2023/05/03 12:20:29;;;;;;;4.87;3.07;;;33.90;1.00;;;;;;4962850;28;20479;-87
2023/05/03 12:23:01;;;;;;;3.30;2.80;;;34.10;1.00;;;;;;4962512;28;21303;-83
2023/05/03 12:25:29;;;;;;;4.17;2.93;;;33.40;1.00;;;;;;4965253;28;20468;-86
2023/05/03 12:27:58;;;;;;;5.20;3.10;;;33.60;1.00;;;;;;4969350;28;20479;-84
2023/05/03 12:30:25;;;;;;;4.20;3.03;;;33.80;1.00;;;;;;4963730;28;20527;-87
2023/05/03 12:32:52;;;;;;;2.73;2.40;;;33.50;1.00;;;;;;4966577;28;22075;-85
2023/05/03 12:35:22;;;;;;;3.80;2.87;;;33.40;1.00;;;;;;4963621;28;20523;-84
2023/05/03 12:37:50;;;;;;;6.47;3.43;;;33.50;1.00;;;;;;4970461;28;20452;-87
2023/05/03 12:40:19;;;;;;;4.80;2.90;;;33.50;1.00;;;;;;4967465;28;20532;-89
2023/05/03 12:42:46;;;;;;;4.93;3.17;;;33.60;1.00;;;;;;4963359;28;20531;-87
2023/05/03 12:45:13;;;;;;;4.50;3.27;;;33.70;1.00;;;;;;4963404;28;20534;-82
2023/05/03 12:47:40;;;;;;;3.67;2.80;;;33.60;1.00;;;;;;4969576;28;20464;-85
2023/05/03 12:50:09;;;;;;;6.83;2.80;;;33.30;1.00;;;;;;4961739;28;20564;-84
2023/05/03 12:52:38;;;;;;;3.37;2.90;;;33.20;1.00;;;;;;4966895;28;20462;-87
2023/05/03 12:55:06;;;;;;;3.93;3.50;;;33.00;1.00;;;;;;4964041;28;20551;-86
2023/05/03 12:57:33;;;;;;;5.50;3.90;;;33.10;1.00;;;;;;4961518;28;20602;-86
2023/05/03 13:00:01;;;;;;;4.07;2.60;;;33.30;1.00;;;;;;4963232;28;20472;-85
2023/05/03 13:02:28;;;;;;;6.67;3.67;;;33.50;1.00;;;;;;4968039;28;21425;-86
2023/05/03 13:04:55;;;;;;;3.47;3.13;;;33.90;1.00;;;;;;4956009;28;20496;-84
2023/05/03 13:07:23;;;;;;;3.80;3.37;;;34.00;1.00;;;;;;4976939;28;20871;-84
2023/05/03 13:09:52;;;;;;;4.00;3.30;;;33.70;1.00;;;;;;4968853;28;20476;-86